メインページ
METAR-TAF:

METAR-TAF

空港 :

モーリシャス, モーリシャス

サー・シウサガル・ラングーラム国際空港

緯度: 20-26S, 経度: 057-40E, 海抜: 55m

現時点の気象観測

当レポートは41分前の01:00(UTC)に作成
南/南東の風 23kt、最大36ktの突風を伴う
気温 26°C
湿度 94%
気圧 988 hPa
視程: 2000m
高度600ftの雲はほとんどない
高度1100ftの雲はほとんどない, 積乱雲.
高度1200ftの千切れ雲あり
高度4500ftの千切れ雲あり
にわか雨

METAR: FIMP 180100Z 16023G36KT 2000 SHRA FEW006 FEW011CB BKN012 BKN045 26/25 Q0988

時間: 05:41 (01:41 UTC)

予報

当レポートは2時間11分前の23:30(UTC)に作成
予報は18日の 00時(UTC)から 19日の 06時(UTC)まで有効
の風 20kt、最大40ktの突風を伴う
視程: 6000m
高度500ftの雲はほとんどない
高度1400ftの千切れ雲あり
高度5000ftの千切れ雲あり
弱いにわか雨
18日の 00時(UTC)から 19日の 00時(UTC)まで一時的に
視程: 2000m
高度400ftの雲はほとんどない
高度1200ftの雲はほとんどない, 積乱雲.
高度1400ftの千切れ雲あり
高度4500ftの千切れ雲あり
18日の 08時(UTC)から 18日の 10時(UTC)まで徐々に
の風 30kt、最大65ktの突風を伴う
18日の 15時(UTC)から 18日の 17時(UTC)まで徐々に
の風 30kt、最大55ktの突風を伴う

TAF: FIMP 172330Z 1800/1906 17020G40KT 6000 -SHRA FEW005 BKN014 BKN050 TEMPO 1800/1900 2000 +SHRA/TSRA FEW004 FEW012CB BKN014 BKN045 BECMG 1808/1810 09030G65KT BECMG 1815/1817 36030G55KT

4,000以上の空港の気象観測と天気予報(METAR報とTAF報)

利用可能な観測所は地図上に黄色い丸と赤い丸で示す。

丸の上にカーソルを重ねると観測所名を参照できる。

次にクリックすると気象観測と天気予報を参照できる。

マップの切り替え:黒色「×」印の緑ボタンをクリックして拡大、「-」印の緑ボタンをクリックして縮小、緑色の三角印をクリックして隣りの地図に切り替え


METAR-TAF: